createdAt,value
2022-10-17T00:00:17.561Z,101010.00
2022-10-17T00:02:48.076Z,101014.19
2022-10-17T00:05:19.338Z,101015.53
2022-10-17T00:07:49.904Z,101024.25
2022-10-17T00:10:20.446Z,101017.56
2022-10-17T00:12:51.939Z,101015.00
2022-10-17T00:15:22.963Z,101015.91
2022-10-17T00:17:53.290Z,101015.34
2022-10-17T00:20:23.006Z,101015.81
2022-10-17T00:22:53.233Z,101009.00
2022-10-17T00:25:23.686Z,101004.38
2022-10-17T00:27:53.221Z,101002.22
2022-10-17T00:30:23.238Z,101004.50
2022-10-17T00:32:53.596Z,100999.59
2022-10-17T00:35:23.653Z,101009.22
2022-10-17T00:37:54.185Z,101000.28
2022-10-17T00:40:45.416Z,101003.09
2022-10-17T00:43:24.930Z,101005.72
2022-10-17T00:45:55.787Z,101003.69
2022-10-17T00:48:27.864Z,100996.56
2022-10-17T00:50:58.075Z,101003.88
2022-10-17T00:53:28.541Z,101008.81
2022-10-17T00:55:58.602Z,101008.28
2022-10-17T00:58:29.182Z,101006.72
2022-10-17T01:00:59.215Z,101008.38
2022-10-17T01:03:35.390Z,101004.84
2022-10-17T01:06:08.402Z,100994.28
2022-10-17T01:08:42.103Z,101000.69
2022-10-17T01:11:45.258Z,101000.16
2022-10-17T01:14:40.432Z,101005.44
2022-10-17T01:17:53.087Z,101008.78
2022-10-17T01:20:35.838Z,100994.53
2022-10-17T01:23:49.133Z,100996.09
2022-10-17T01:26:34.463Z,100999.56
2022-10-17T01:29:41.913Z,100998.28
2022-10-17T01:32:26.607Z,101003.88
2022-10-17T01:35:05.404Z,101001.97
2022-10-17T01:37:54.314Z,101002.72
2022-10-17T01:40:43.773Z,101010.09
2022-10-17T01:43:20.139Z,101007.09
2022-10-17T01:46:42.405Z,101015.00
2022-10-17T01:49:15.953Z,101003.22
2022-10-17T01:51:54.463Z,101007.97
2022-10-17T01:54:32.406Z,101009.91
2022-10-17T01:57:07.651Z,101011.34
2022-10-17T01:59:45.174Z,101006.13
2022-10-17T02:02:16.313Z,101002.78
2022-10-17T02:04:48.257Z,101009.09
2022-10-17T02:07:18.735Z,101000.81
2022-10-17T02:09:49.348Z,100997.34
2022-10-17T02:13:03.218Z,101003.22
2022-10-17T02:15:58.939Z,101000.78
2022-10-17T02:18:40.594Z,101003.25
2022-10-17T02:21:49.469Z,101000.75
2022-10-17T02:24:25.513Z,101002.22
2022-10-17T02:27:07.194Z,101001.53
2022-10-17T02:29:51.678Z,100999.88
2022-10-17T02:32:39.862Z,100994.03
2022-10-17T02:35:14.287Z,100996.97
2022-10-17T02:37:49.129Z,100997.19
2022-10-17T02:40:22.049Z,100988.81
2022-10-17T02:42:55.802Z,100990.94
2022-10-17T02:45:29.072Z,100995.50
2022-10-17T02:48:11.146Z,100989.44
2022-10-17T02:51:09.343Z,100998.53
2022-10-17T02:54:07.407Z,100994.91
2022-10-17T02:56:48.494Z,100999.88
2022-10-17T02:59:22.635Z,100997.16
2022-10-17T03:01:53.458Z,100995.72
2022-10-17T03:04:23.845Z,100997.72
2022-10-17T03:06:56.719Z,100996.69
2022-10-17T03:09:27.297Z,100988.28
2022-10-17T03:11:57.402Z,100982.16
2022-10-17T03:14:27.974Z,100989.72
2022-10-17T03:16:58.030Z,100984.28
2022-10-17T03:19:28.720Z,100995.09
2022-10-17T03:21:59.183Z,100983.41
2022-10-17T03:24:29.192Z,100987.44
2022-10-17T03:26:59.678Z,100988.69
2022-10-17T03:29:29.784Z,100988.28
2022-10-17T03:32:00.425Z,100984.13
2022-10-17T03:34:30.908Z,100990.03
2022-10-17T03:37:24.687Z,100995.31
2022-10-17T03:39:59.687Z,100984.31
2022-10-17T03:42:33.203Z,101008.28
2022-10-17T03:45:03.734Z,101005.75
2022-10-17T03:47:34.102Z,100996.13
2022-10-17T03:50:05.615Z,100998.56
2022-10-17T03:52:38.688Z,101001.59
2022-10-17T03:55:09.373Z,101000.84
2022-10-17T03:57:44.793Z,100993.44
2022-10-17T04:00:17.968Z,100991.88
2022-10-17T04:02:56.194Z,100988.59
2022-10-17T04:05:27.431Z,101003.06
2022-10-17T04:08:01.072Z,100994.00
2022-10-17T04:10:54.411Z,100982.56
2022-10-17T04:13:24.568Z,100990.13
2022-10-17T04:16:00.157Z,100990.97
2022-10-17T04:18:30.714Z,100997.72
2022-10-17T04:21:06.188Z,100993.66
2022-10-17T04:23:39.397Z,100987.41
2022-10-17T04:26:18.681Z,100980.50
2022-10-17T04:28:49.094Z,100982.13
2022-10-17T04:31:20.035Z,100985.38
2022-10-17T04:34:28.483Z,100983.72
2022-10-17T04:36:59.119Z,100987.81
2022-10-17T04:39:33.839Z,100976.25
2022-10-17T04:42:04.337Z,100982.91
2022-10-17T04:44:36.694Z,100980.91
2022-10-17T04:47:07.038Z,100982.22
2022-10-17T04:49:37.230Z,100974.53
2022-10-17T04:52:15.770Z,100971.66
2022-10-17T04:54:47.471Z,100972.41
2022-10-17T04:57:17.898Z,100979.56
2022-10-17T04:59:57.047Z,100979.38
2022-10-17T05:02:49.866Z,100979.78
2022-10-17T05:05:19.980Z,100984.44
2022-10-17T05:07:53.143Z,100983.59
2022-10-17T05:10:27.023Z,100986.75
2022-10-17T05:12:57.620Z,100974.63
2022-10-17T05:15:31.820Z,100974.41
2022-10-17T05:18:07.082Z,100971.97
2022-10-17T05:20:38.151Z,100972.91
2022-10-17T05:23:09.410Z,100971.25
2022-10-17T05:25:43.266Z,100978.16
2022-10-17T05:28:14.333Z,100973.09
2022-10-17T05:30:47.190Z,100972.59
2022-10-17T05:33:18.933Z,100971.66
2022-10-17T05:35:49.348Z,100972.75
2022-10-17T05:38:19.866Z,100975.44
2022-10-17T05:40:50.515Z,100971.19
2022-10-17T05:43:22.512Z,100975.66
2022-10-17T05:45:52.753Z,100979.19
2022-10-17T05:48:25.297Z,100970.56
2022-10-17T05:51:06.357Z,100979.00
2022-10-17T05:53:39.958Z,100976.72
2022-10-17T05:56:15.958Z,100968.25
2022-10-17T05:58:51.825Z,100964.88
2022-10-17T06:01:31.728Z,100967.03
2022-10-17T06:04:04.998Z,100956.13
2022-10-17T06:06:44.156Z,100960.91
2022-10-17T06:09:15.086Z,100962.03
2022-10-17T06:11:49.867Z,100952.19
2022-10-17T06:14:20.427Z,100955.81
2022-10-17T06:16:54.395Z,100964.09
2022-10-17T06:19:24.926Z,100962.59
2022-10-17T06:21:54.794Z,100966.38
2022-10-17T06:24:27.655Z,100968.72
2022-10-17T06:27:43.928Z,100973.16
2022-10-17T06:30:15.264Z,100962.25
2022-10-17T06:32:45.536Z,100972.00
2022-10-17T06:35:16.138Z,100978.28
2022-10-17T06:37:45.909Z,100972.03
2022-10-17T06:40:18.009Z,100967.16
2022-10-17T06:42:49.209Z,100959.00
2022-10-17T06:45:43.427Z,100969.25
2022-10-17T06:48:20.644Z,100982.19
2022-10-17T06:51:12.633Z,100990.91
2022-10-17T06:53:51.130Z,100985.63
2022-10-17T06:56:38.848Z,100991.66
2022-10-17T06:59:29.332Z,100970.84
2022-10-17T07:02:04.461Z,100993.88
2022-10-17T07:04:35.330Z,100993.22
2022-10-17T07:07:05.755Z,101003.66
2022-10-17T07:09:37.362Z,101000.22
2022-10-17T07:12:09.485Z,100996.59
2022-10-17T07:14:44.262Z,101002.97
2022-10-17T07:17:14.511Z,101003.41
2022-10-17T07:19:45.786Z,101005.69
2022-10-17T07:22:16.039Z,101011.94
2022-10-17T07:27:35.484Z,101014.56
2022-10-17T07:30:07.621Z,101023.13
2022-10-17T07:32:57.492Z,101025.41
2022-10-17T07:35:28.214Z,101022.66
2022-10-17T07:37:59.008Z,101025.78
2022-10-17T07:40:29.890Z,101035.03
2022-10-17T07:43:00.038Z,101031.38
2022-10-17T07:45:31.014Z,101039.22
2022-10-17T07:48:01.125Z,101046.13
2022-10-17T07:50:34.256Z,101043.97
2022-10-17T07:53:04.272Z,101059.34
2022-10-17T07:55:35.175Z,101054.66
2022-10-17T07:59:02.595Z,101060.59
2022-10-17T08:01:38.368Z,101060.69
2022-10-17T08:04:08.403Z,101063.50
2022-10-17T08:06:38.997Z,101064.97
2022-10-17T08:09:09.088Z,101061.13
2022-10-17T08:11:39.794Z,101068.84
2022-10-17T08:14:10.295Z,101075.75
2022-10-17T08:16:41.767Z,101084.31
2022-10-17T08:19:12.612Z,101072.25
2022-10-17T08:21:44.773Z,101080.09
2022-10-17T08:24:14.750Z,101082.09
2022-10-17T08:26:48.259Z,101085.19
2022-10-17T08:29:19.511Z,101093.78
2022-10-17T08:31:54.084Z,101093.19
2022-10-17T08:34:28.771Z,101093.66
2022-10-17T08:36:59.470Z,101093.34
2022-10-17T08:39:29.605Z,101093.81
2022-10-17T08:42:08.971Z,101093.75
2022-10-17T08:44:56.609Z,101098.28
2022-10-17T08:47:37.626Z,101090.84
2022-10-17T08:50:46.246Z,101092.50
2022-10-17T08:53:49.858Z,101093.00
2022-10-17T08:56:30.471Z,101101.56
2022-10-17T08:59:21.631Z,101099.13
2022-10-17T09:02:27.455Z,101100.97
2022-10-17T09:05:06.058Z,101115.22
2022-10-17T09:07:48.493Z,101115.41
2022-10-17T09:10:42.948Z,101123.28
2022-10-17T09:13:40.137Z,101129.44
2022-10-17T09:16:18.283Z,101126.03
2022-10-17T09:19:09.113Z,101135.72
2022-10-17T09:21:52.611Z,101135.47
2022-10-17T09:24:52.135Z,101149.91
2022-10-17T09:27:44.694Z,101147.34
2022-10-17T09:30:44.702Z,101148.06
2022-10-17T09:33:34.307Z,101157.22
2022-10-17T09:36:19.299Z,101160.47
2022-10-17T09:38:55.520Z,101161.25
2022-10-17T09:44:20.469Z,101171.00
2022-10-17T09:47:02.165Z,101171.25
2022-10-17T09:49:51.751Z,101188.44
2022-10-17T09:52:24.441Z,101191.28
2022-10-17T09:55:07.003Z,101193.19
2022-10-17T09:58:04.441Z,101196.94
2022-10-17T10:00:46.179Z,101195.94
2022-10-17T10:03:23.939Z,101193.47
2022-10-17T10:06:15.771Z,101194.63
2022-10-17T10:08:59.919Z,101187.69
2022-10-17T10:11:55.559Z,101199.31
2022-10-17T10:14:37.455Z,101211.09
2022-10-17T10:17:28.597Z,101206.41
2022-10-17T10:19:58.757Z,101201.59
2022-10-17T10:22:30.584Z,101209.63
2022-10-17T10:25:18.410Z,101211.63
2022-10-17T10:27:49.718Z,101208.56
2022-10-17T10:30:22.998Z,101213.41
2022-10-17T10:32:53.811Z,101222.41
2022-10-17T10:35:42.015Z,101212.72
2022-10-17T10:38:17.320Z,101219.56
2022-10-17T10:41:12.298Z,101217.13
2022-10-17T10:43:47.216Z,101219.97
2022-10-17T10:46:27.802Z,101231.47
2022-10-17T10:49:00.810Z,101231.41
2022-10-17T10:51:50.998Z,101233.28
2022-10-17T10:54:32.156Z,101235.13
2022-10-17T10:57:05.426Z,101238.69
2022-10-17T10:59:53.167Z,101232.53
2022-10-17T11:02:39.023Z,101240.13
2022-10-17T11:05:12.603Z,101238.66
2022-10-17T11:07:57.140Z,101241.53
2022-10-17T11:10:40.838Z,101241.31
2022-10-17T11:13:43.581Z,101237.22
2022-10-17T11:16:23.956Z,101246.50
2022-10-17T11:19:00.019Z,101241.94
2022-10-17T11:21:48.326Z,101239.06
2022-10-17T11:24:32.892Z,101250.59
2022-10-17T11:27:06.143Z,101249.81
2022-10-17T11:29:39.849Z,101251.13
2022-10-17T11:32:37.523Z,101259.94
2022-10-17T11:35:07.900Z,101263.19
2022-10-17T11:37:48.410Z,101259.03
2022-10-17T11:40:35.114Z,101258.72
2022-10-17T11:43:15.302Z,101265.38
2022-10-17T11:45:50.453Z,101278.97
2022-10-17T11:48:31.226Z,101269.31
2022-10-17T11:54:16.381Z,101267.47
2022-10-17T11:57:12.678Z,101270.28
2022-10-17T12:00:09.256Z,101267.25
2022-10-17T12:02:44.599Z,101261.31
2022-10-17T12:05:43.309Z,101266.31
2022-10-17T12:08:30.469Z,101267.22
2022-10-17T12:11:19.554Z,101275.63
2022-10-17T12:13:53.843Z,101275.59
2022-10-17T12:16:25.959Z,101267.00
2022-10-17T12:19:07.580Z,101274.53
2022-10-17T12:22:21.299Z,101269.47
2022-10-17T12:25:05.637Z,101278.63
2022-10-17T12:27:46.968Z,101261.16
2022-10-17T12:30:29.784Z,101266.41
2022-10-17T12:33:06.564Z,101274.38
2022-10-17T12:35:39.463Z,101273.41
2022-10-17T12:38:30.087Z,101277.09
2022-10-17T12:41:00.757Z,101267.75
2022-10-17T12:43:31.153Z,101259.78
2022-10-17T12:46:07.300Z,101254.28
2022-10-17T12:48:43.607Z,101250.47
2022-10-17T12:51:38.129Z,101256.34
2022-10-17T12:54:17.500Z,101250.00
2022-10-17T12:56:50.851Z,101261.84
2022-10-17T12:59:30.729Z,101255.44
2022-10-17T13:02:05.599Z,101257.44
2022-10-17T13:04:38.747Z,101254.72
2022-10-17T13:07:20.186Z,101250.84
2022-10-17T13:09:51.998Z,101260.81
2022-10-17T13:12:29.242Z,101261.91
2022-10-17T13:15:01.035Z,101257.63
2022-10-17T13:17:32.357Z,101253.47
2022-10-17T13:20:02.956Z,101257.47
2022-10-17T13:22:34.480Z,101239.34
2022-10-17T13:25:19.532Z,101246.22
2022-10-17T13:27:50.428Z,101233.47
2022-10-17T13:30:35.517Z,101224.53
2022-10-17T13:33:18.132Z,101238.31
2022-10-17T13:36:05.677Z,101241.41
2022-10-17T13:38:40.428Z,101247.81
2022-10-17T13:41:35.966Z,101242.22
2022-10-17T13:44:14.113Z,101230.00
2022-10-17T13:46:46.074Z,101247.19
2022-10-17T13:49:45.395Z,101238.97
2022-10-17T13:52:21.891Z,101229.94
2022-10-17T13:54:54.267Z,101240.13
2022-10-17T13:57:32.760Z,101231.34
2022-10-17T14:00:30.381Z,101223.25
2022-10-17T14:03:00.791Z,101223.25
2022-10-17T14:05:30.989Z,101218.03
2022-10-17T14:08:13.784Z,101222.94
2022-10-17T14:10:48.994Z,101215.81
2022-10-17T14:13:25.166Z,101210.03
2022-10-17T14:15:57.346Z,101212.47
2022-10-17T14:18:36.637Z,101213.75
2022-10-17T14:21:36.841Z,101206.25
2022-10-17T14:24:37.858Z,101213.97
2022-10-17T14:27:27.446Z,101192.72
2022-10-17T14:30:04.090Z,101189.56
2022-10-17T14:32:37.564Z,101170.59
2022-10-17T14:35:30.699Z,101178.63
2022-10-17T14:38:05.090Z,101180.44
2022-10-17T14:40:36.494Z,101177.44
2022-10-17T14:43:08.430Z,101163.22
2022-10-17T14:45:41.097Z,101159.19
2022-10-17T14:48:26.027Z,101159.53
2022-10-17T14:51:20.027Z,101159.94
2022-10-17T14:54:31.608Z,101154.78
2022-10-17T14:57:16.421Z,101147.03
2022-10-17T14:59:55.376Z,101136.53
2022-10-17T15:02:29.334Z,101143.09
2022-10-17T15:05:00.124Z,101130.66
2022-10-17T15:07:30.914Z,101134.69
2022-10-17T15:10:01.294Z,101145.84
2022-10-17T15:12:33.748Z,101136.16
2022-10-17T15:15:04.243Z,101133.78
2022-10-17T15:17:35.760Z,101121.53
2022-10-17T15:20:13.724Z,101120.97
2022-10-17T15:22:45.186Z,101121.03
2022-10-17T15:25:15.714Z,101126.56
2022-10-17T15:27:46.374Z,101125.88
2022-10-17T15:30:27.190Z,101123.50
2022-10-17T15:32:58.612Z,101110.78
2022-10-17T15:35:30.313Z,101103.72
2022-10-17T15:38:01.336Z,101103.94
2022-10-17T15:40:32.325Z,101093.50
2022-10-17T15:43:03.103Z,101096.31
2022-10-17T15:45:37.004Z,101091.78
2022-10-17T15:48:09.380Z,101103.78
2022-10-17T15:50:39.727Z,101102.78
2022-10-17T15:53:14.091Z,101091.84
2022-10-17T15:55:44.562Z,101085.75
2022-10-17T15:58:17.873Z,101088.78
2022-10-17T16:00:48.481Z,101078.06
2022-10-17T16:05:55.727Z,101071.41
2022-10-17T16:08:26.490Z,101072.94
2022-10-17T16:10:56.686Z,101067.00
2022-10-17T16:13:27.316Z,101077.38
2022-10-17T16:15:57.806Z,101063.31
2022-10-17T16:18:28.599Z,101061.28
2022-10-17T16:20:58.819Z,101065.22
2022-10-17T16:23:29.528Z,101069.28
2022-10-17T16:25:59.941Z,101071.56
2022-10-17T16:28:30.656Z,101060.16
2022-10-17T16:31:01.042Z,101059.28
2022-10-17T16:33:32.621Z,101054.25
2022-10-17T16:36:03.073Z,101029.81
2022-10-17T16:38:33.787Z,101035.97
2022-10-17T16:41:04.063Z,101043.94
2022-10-17T16:43:37.605Z,101038.16
2022-10-17T16:46:08.279Z,101035.03
2022-10-17T16:51:09.191Z,101025.88
2022-10-17T16:53:41.376Z,101028.81
2022-10-17T16:56:14.203Z,101014.59
2022-10-17T16:58:45.536Z,101001.69
2022-10-17T17:01:21.047Z,101001.94
2022-10-17T17:03:53.210Z,101011.09
2022-10-17T17:06:28.948Z,101012.78
2022-10-17T17:08:59.785Z,101005.78
2022-10-17T17:11:30.604Z,101012.38
2022-10-17T17:14:03.050Z,101007.44
2022-10-17T17:16:35.732Z,101012.72
2022-10-17T17:19:09.765Z,101006.56
2022-10-17T17:21:40.369Z,101002.22
2022-10-17T17:24:11.091Z,101002.44
2022-10-17T17:26:42.726Z,101003.56
2022-10-17T17:29:13.539Z,101005.00
2022-10-17T17:31:44.131Z,100990.84
2022-10-17T17:34:17.956Z,101000.28
2022-10-17T17:36:49.003Z,100982.53
2022-10-17T17:39:19.697Z,100987.00
2022-10-17T17:41:50.468Z,100993.59
2022-10-17T17:44:21.658Z,100990.28
2022-10-17T17:46:52.215Z,100996.50
2022-10-17T17:49:23.644Z,100997.19
2022-10-17T17:51:55.561Z,100992.25
2022-10-17T17:54:26.295Z,100997.09
2022-10-17T17:56:56.710Z,100994.78
2022-10-17T17:59:27.618Z,100982.53
2022-10-17T18:01:58.018Z,100977.09
2022-10-17T18:04:40.289Z,100978.25
2022-10-17T18:07:13.746Z,100983.75
2022-10-17T18:09:44.462Z,100981.69
2022-10-17T18:12:14.818Z,100978.75
2022-10-17T18:14:45.768Z,100982.75
2022-10-17T18:17:16.272Z,100985.53
2022-10-17T18:19:47.508Z,100976.41
2022-10-17T18:22:20.598Z,100974.47
2022-10-17T18:24:51.750Z,100971.97
2022-10-17T18:27:22.319Z,100961.69
2022-10-17T18:29:53.256Z,100984.94
2022-10-17T18:32:23.531Z,100984.34
2022-10-17T18:34:54.205Z,100981.09
2022-10-17T18:37:24.733Z,100966.94
2022-10-17T18:39:57.004Z,100977.31
2022-10-17T18:42:27.497Z,100980.41
2022-10-17T18:44:58.674Z,100987.69
2022-10-17T18:47:30.839Z,100966.91
2022-10-17T18:50:01.711Z,100959.28
2022-10-17T18:52:32.018Z,100954.22
2022-10-17T18:55:02.734Z,100967.75
2022-10-17T18:57:33.292Z,100985.25
2022-10-17T19:00:04.314Z,100992.47
2022-10-17T19:02:37.246Z,100969.63
2022-10-17T19:05:09.231Z,100974.78
2022-10-17T19:07:39.674Z,100984.44
2022-10-17T19:10:10.813Z,100969.50
2022-10-17T19:12:41.014Z,100957.97
2022-10-17T19:15:11.896Z,100969.91
2022-10-17T19:17:42.413Z,100984.69
2022-10-17T19:20:13.198Z,100985.22
2022-10-17T19:22:43.568Z,100985.22
2022-10-17T19:25:14.360Z,100998.53
2022-10-17T19:27:44.838Z,101000.28
2022-10-17T19:30:15.630Z,100975.88
2022-10-17T19:32:45.870Z,101002.22
2022-10-17T19:35:16.675Z,100994.59
2022-10-17T19:37:47.146Z,101011.31
2022-10-17T19:40:17.950Z,101004.94
2022-10-17T19:42:48.318Z,101011.56
2022-10-17T19:45:19.400Z,101006.63
2022-10-17T19:47:49.851Z,101013.53
2022-10-17T19:50:20.683Z,101028.13
2022-10-17T19:52:53.172Z,101030.34
2022-10-17T19:55:23.837Z,101029.50
2022-10-17T19:57:54.411Z,101044.25
2022-10-17T20:00:25.338Z,101034.00
2022-10-17T20:02:56.056Z,101048.50
2022-10-17T20:05:28.229Z,101048.13
2022-10-17T20:07:58.795Z,101054.63
2022-10-17T20:10:29.278Z,101060.75
2022-10-17T20:12:59.568Z,101070.09
2022-10-17T20:15:31.253Z,101082.34
2022-10-17T20:18:02.131Z,101066.81
2022-10-17T20:20:32.988Z,101072.69
2022-10-17T20:23:03.613Z,101081.34
2022-10-17T20:25:35.665Z,101088.66
2022-10-17T20:28:06.828Z,101093.94
2022-10-17T20:30:40.291Z,101094.56
2022-10-17T20:33:10.494Z,101094.50
2022-10-17T20:38:20.497Z,101080.22
2022-10-17T20:40:53.974Z,101094.06
2022-10-17T20:43:24.221Z,101102.00
2022-10-17T20:46:03.500Z,101104.94
2022-10-17T20:48:35.231Z,101104.25
2022-10-17T20:51:10.569Z,101112.72
2022-10-17T20:53:40.868Z,101119.66
2022-10-17T20:56:21.759Z,101115.25
2022-10-17T20:58:57.135Z,101114.56
2022-10-17T21:01:28.800Z,101096.13
2022-10-17T21:04:10.643Z,101114.09
2022-10-17T21:06:50.291Z,101120.50
2022-10-17T21:09:21.113Z,101123.72
2022-10-17T21:11:56.096Z,101128.91
2022-10-17T21:14:27.218Z,101122.75
2022-10-17T21:17:01.044Z,101132.88
2022-10-17T21:19:34.485Z,101137.06
2022-10-17T21:22:06.941Z,101132.13
2022-10-17T21:24:36.677Z,101136.56
2022-10-17T21:27:08.406Z,101141.97
2022-10-17T21:29:39.490Z,101145.41
2022-10-17T21:32:19.476Z,101148.09
2022-10-17T21:35:00.360Z,101148.38
2022-10-17T21:37:30.849Z,101160.94
2022-10-17T21:40:01.729Z,101167.09
2022-10-17T21:42:32.106Z,101167.09
2022-10-17T21:45:07.546Z,101180.13
2022-10-17T21:48:11.136Z,101178.84
2022-10-17T21:50:36.420Z,101188.22
2022-10-17T21:53:06.524Z,101181.56
2022-10-17T21:55:40.190Z,101180.63
2022-10-17T21:58:10.374Z,101185.06
2022-10-17T22:00:41.260Z,101194.88
2022-10-17T22:03:15.617Z,101201.09
2022-10-17T22:05:46.968Z,101197.81
2022-10-17T22:08:17.117Z,101196.16
2022-10-17T22:10:47.978Z,101197.84
2022-10-17T22:13:18.093Z,101204.78
2022-10-17T22:15:48.998Z,101211.41
2022-10-17T22:18:19.020Z,101214.56
2022-10-17T22:20:49.279Z,101214.84
2022-10-17T22:23:19.943Z,101229.38
2022-10-17T22:25:57.563Z,101223.25
2022-10-17T22:28:31.458Z,101222.78
2022-10-17T22:31:02.175Z,101226.66
2022-10-17T22:33:37.039Z,101219.53
2022-10-17T22:36:08.799Z,101246.91
2022-10-17T22:38:39.502Z,101255.50
2022-10-17T22:41:10.323Z,101257.22
2022-10-17T22:43:40.787Z,101260.91
2022-10-17T22:46:14.159Z,101265.09
2022-10-17T22:48:44.832Z,101255.94
2022-10-17T22:51:14.910Z,101256.03
2022-10-17T22:53:44.645Z,101251.78
2022-10-17T22:56:18.387Z,101255.63
2022-10-17T22:58:49.633Z,101255.84
2022-10-17T23:01:25.918Z,101251.44
2022-10-17T23:03:57.594Z,101240.34
2022-10-17T23:06:28.279Z,101241.19
2022-10-17T23:08:57.802Z,101251.72
2022-10-17T23:11:27.998Z,101253.63
2022-10-17T23:14:29.898Z,101259.19
2022-10-17T23:17:04.046Z,101258.03
2022-10-17T23:19:37.738Z,101263.59
2022-10-17T23:22:10.025Z,101257.34
2022-10-17T23:24:40.257Z,101253.16
2022-10-17T23:27:10.844Z,101271.81
2022-10-17T23:29:41.102Z,101279.78
2022-10-17T23:32:11.831Z,101278.94
2022-10-17T23:34:42.053Z,101286.38
2022-10-17T23:37:13.085Z,101280.91
2022-10-17T23:39:43.331Z,101298.59
2022-10-17T23:42:14.302Z,101293.34
2022-10-17T23:44:44.480Z,101297.44
2022-10-17T23:47:15.279Z,101309.50
2022-10-17T23:49:45.540Z,101310.03
2022-10-17T23:52:16.550Z,101318.09
2022-10-17T23:54:46.835Z,101318.66
2022-10-17T23:57:17.409Z,101326.88
2022-10-17T23:59:47.972Z,101320.66
